sensor_id;sensor_type;location;lat;lon;timestamp;temperature;humidity
61351;DHT22;47119;49.130;9.218;2023-07-09T00:00:19;20.90;76.63
61351;DHT22;47119;49.130;9.218;2023-07-09T00:02:49;20.88;76.43
61351;DHT22;47119;49.130;9.218;2023-07-09T00:05:19;20.90;76.51
61351;DHT22;47119;49.130;9.218;2023-07-09T00:07:46;20.88;76.26
61351;DHT22;47119;49.130;9.218;2023-07-09T00:10:17;20.90;76.49
61351;DHT22;47119;49.130;9.218;2023-07-09T00:12:48;20.88;76.33
61351;DHT22;47119;49.130;9.218;2023-07-09T00:15:19;20.88;76.33
61351;DHT22;47119;49.130;9.218;2023-07-09T00:17:51;20.90;76.34
61351;DHT22;47119;49.130;9.218;2023-07-09T00:20:20;20.87;76.30
61351;DHT22;47119;49.130;9.218;2023-07-09T00:22:47;20.90;76.46
61351;DHT22;47119;49.130;9.218;2023-07-09T00:25:19;20.91;76.26
61351;DHT22;47119;49.130;9.218;2023-07-09T00:27:50;20.88;75.98
61351;DHT22;47119;49.130;9.218;2023-07-09T00:30:21;20.88;76.11
61351;DHT22;47119;49.130;9.218;2023-07-09T00:32:51;20.88;76.20
61351;DHT22;47119;49.130;9.218;2023-07-09T00:35:22;20.90;75.98
61351;DHT22;47119;49.130;9.218;2023-07-09T00:37:55;20.90;76.01
61351;DHT22;47119;49.130;9.218;2023-07-09T00:40:28;20.90;75.93
61351;DHT22;47119;49.130;9.218;2023-07-09T00:43:00;20.90;75.90
61351;DHT22;47119;49.130;9.218;2023-07-09T00:45:32;20.88;75.78
61351;DHT22;47119;49.130;9.218;2023-07-09T00:48:02;20.90;75.67
61351;DHT22;47119;49.130;9.218;2023-07-09T00:50:41;20.90;75.70
61351;DHT22;47119;49.130;9.218;2023-07-09T00:53:15;20.87;75.79
61351;DHT22;47119;49.130;9.218;2023-07-09T00:55:50;20.87;75.81
61351;DHT22;47119;49.130;9.218;2023-07-09T00:58:22;20.90;75.85
61351;DHT22;47119;49.130;9.218;2023-07-09T01:00:55;20.90;75.92
61351;DHT22;47119;49.130;9.218;2023-07-09T01:03:35;20.87;75.88
61351;DHT22;47119;49.130;9.218;2023-07-09T01:06:06;20.87;75.96
61351;DHT22;47119;49.130;9.218;2023-07-09T01:08:39;20.78;76.70
61351;DHT22;47119;49.130;9.218;2023-07-09T01:11:15;20.83;76.30
61351;DHT22;47119;49.130;9.218;2023-07-09T01:13:46;20.83;76.23
61351;DHT22;47119;49.130;9.218;2023-07-09T01:16:16;20.83;76.29
61351;DHT22;47119;49.130;9.218;2023-07-09T01:18:47;20.85;76.47
61351;DHT22;47119;49.130;9.218;2023-07-09T01:21:15;20.85;76.46
61351;DHT22;47119;49.130;9.218;2023-07-09T01:23:48;20.87;76.44
61351;DHT22;47119;49.130;9.218;2023-07-09T01:26:24;20.83;76.40
61351;DHT22;47119;49.130;9.218;2023-07-09T01:28:56;20.84;76.39
61351;DHT22;47119;49.130;9.218;2023-07-09T01:31:26;20.84;76.28
61351;DHT22;47119;49.130;9.218;2023-07-09T01:33:52;20.84;76.31
61351;DHT22;47119;49.130;9.218;2023-07-09T01:36:24;20.84;76.22
61351;DHT22;47119;49.130;9.218;2023-07-09T01:38:55;20.83;76.30
61351;DHT22;47119;49.130;9.218;2023-07-09T01:41:25;20.84;75.98
61351;DHT22;47119;49.130;9.218;2023-07-09T01:43:52;20.80;76.20
61351;DHT22;47119;49.130;9.218;2023-07-09T01:46:21;20.84;76.22
61351;DHT22;47119;49.130;9.218;2023-07-09T01:48:48;20.83;76.10
61351;DHT22;47119;49.130;9.218;2023-07-09T01:51:18;20.83;76.17
61351;DHT22;47119;49.130;9.218;2023-07-09T01:53:46;20.83;76.08
61351;DHT22;47119;49.130;9.218;2023-07-09T01:56:14;20.84;76.00
61351;DHT22;47119;49.130;9.218;2023-07-09T01:58:43;20.83;75.90
61351;DHT22;47119;49.130;9.218;2023-07-09T02:01:11;20.84;76.06
61351;DHT22;47119;49.130;9.218;2023-07-09T02:03:40;20.83;76.09
61351;DHT22;47119;49.130;9.218;2023-07-09T02:06:09;20.81;76.05
61351;DHT22;47119;49.130;9.218;2023-07-09T02:08:38;20.80;76.09
61351;DHT22;47119;49.130;9.218;2023-07-09T02:11:07;20.81;75.93
61351;DHT22;47119;49.130;9.218;2023-07-09T02:13:36;20.83;75.81
61351;DHT22;47119;49.130;9.218;2023-07-09T02:16:03;20.81;75.71
61351;DHT22;47119;49.130;9.218;2023-07-09T02:18:35;20.81;75.79
61351;DHT22;47119;49.130;9.218;2023-07-09T02:21:07;20.80;75.69
61351;DHT22;47119;49.130;9.218;2023-07-09T02:23:34;20.84;75.74
61351;DHT22;47119;49.130;9.218;2023-07-09T02:26:03;20.84;75.64
61351;DHT22;47119;49.130;9.218;2023-07-09T02:28:31;20.81;75.71
61351;DHT22;47119;49.130;9.218;2023-07-09T02:31:01;20.78;75.65
61351;DHT22;47119;49.130;9.218;2023-07-09T02:33:30;20.80;75.70
61351;DHT22;47119;49.130;9.218;2023-07-09T02:36:00;20.81;75.59
61351;DHT22;47119;49.130;9.218;2023-07-09T02:38:31;20.80;75.65
61351;DHT22;47119;49.130;9.218;2023-07-09T02:41:00;20.78;75.57
61351;DHT22;47119;49.130;9.218;2023-07-09T02:43:29;20.80;75.47
61351;DHT22;47119;49.130;9.218;2023-07-09T02:46:03;20.84;74.54
61351;DHT22;47119;49.130;9.218;2023-07-09T02:48:34;20.80;75.40
61351;DHT22;47119;49.130;9.218;2023-07-09T02:51:07;20.81;75.38
61351;DHT22;47119;49.130;9.218;2023-07-09T02:53:36;20.78;75.27
61351;DHT22;47119;49.130;9.218;2023-07-09T02:56:03;20.80;75.21
61351;DHT22;47119;49.130;9.218;2023-07-09T02:58:34;20.81;75.21
61351;DHT22;47119;49.130;9.218;2023-07-09T03:01:03;20.78;75.16
61351;DHT22;47119;49.130;9.218;2023-07-09T03:03:33;20.81;75.28
61351;DHT22;47119;49.130;9.218;2023-07-09T03:06:02;20.78;75.18
61351;DHT22;47119;49.130;9.218;2023-07-09T03:08:31;20.81;73.83
61351;DHT22;47119;49.130;9.218;2023-07-09T03:11:08;20.84;72.78
61351;DHT22;47119;49.130;9.218;2023-07-09T03:13:40;20.84;72.89
61351;DHT22;47119;49.130;9.218;2023-07-09T03:16:12;20.84;73.21
61351;DHT22;47119;49.130;9.218;2023-07-09T03:18:42;20.83;74.47
61351;DHT22;47119;49.130;9.218;2023-07-09T03:21:14;20.81;73.90
61351;DHT22;47119;49.130;9.218;2023-07-09T03:23:41;20.83;73.71
61351;DHT22;47119;49.130;9.218;2023-07-09T03:26:08;20.83;74.40
61351;DHT22;47119;49.130;9.218;2023-07-09T03:28:38;20.83;74.52
61351;DHT22;47119;49.130;9.218;2023-07-09T03:31:06;20.85;73.23
61351;DHT22;47119;49.130;9.218;2023-07-09T03:33:36;20.84;72.58
61351;DHT22;47119;49.130;9.218;2023-07-09T03:36:04;20.85;73.12
61351;DHT22;47119;49.130;9.218;2023-07-09T03:38:33;20.87;73.63
61351;DHT22;47119;49.130;9.218;2023-07-09T03:41:03;20.85;73.04
61351;DHT22;47119;49.130;9.218;2023-07-09T03:43:30;20.85;72.58
61351;DHT22;47119;49.130;9.218;2023-07-09T03:46:03;20.87;72.49
61351;DHT22;47119;49.130;9.218;2023-07-09T03:48:32;20.88;72.68
61351;DHT22;47119;49.130;9.218;2023-07-09T03:51:02;20.88;71.99
61351;DHT22;47119;49.130;9.218;2023-07-09T03:53:29;20.84;72.12
61351;DHT22;47119;49.130;9.218;2023-07-09T03:56:00;20.81;72.00
61351;DHT22;47119;49.130;9.218;2023-07-09T03:58:32;20.77;71.93
61351;DHT22;47119;49.130;9.218;2023-07-09T04:01:03;20.81;71.92
61351;DHT22;47119;49.130;9.218;2023-07-09T04:03:35;20.78;71.92
61351;DHT22;47119;49.130;9.218;2023-07-09T04:06:05;20.78;72.56
61351;DHT22;47119;49.130;9.218;2023-07-09T04:08:36;20.83;73.57
61351;DHT22;47119;49.130;9.218;2023-07-09T04:11:03;20.83;73.71
61351;DHT22;47119;49.130;9.218;2023-07-09T04:13:33;20.83;72.96
61351;DHT22;47119;49.130;9.218;2023-07-09T04:16:06;20.85;73.15
61351;DHT22;47119;49.130;9.218;2023-07-09T04:18:35;20.88;73.22
61351;DHT22;47119;49.130;9.218;2023-07-09T04:21:02;20.87;73.68
61351;DHT22;47119;49.130;9.218;2023-07-09T04:23:30;20.85;72.15
61351;DHT22;47119;49.130;9.218;2023-07-09T04:26:01;20.81;72.53
61351;DHT22;47119;49.130;9.218;2023-07-09T04:28:31;20.83;72.04
61351;DHT22;47119;49.130;9.218;2023-07-09T04:30:58;20.87;73.47
61351;DHT22;47119;49.130;9.218;2023-07-09T04:33:29;20.88;73.53
61351;DHT22;47119;49.130;9.218;2023-07-09T04:35:57;20.90;72.78
61351;DHT22;47119;49.130;9.218;2023-07-09T04:38:27;20.90;72.97
61351;DHT22;47119;49.130;9.218;2023-07-09T04:40:56;20.91;71.40
61351;DHT22;47119;49.130;9.218;2023-07-09T04:43:28;20.92;73.01
61351;DHT22;47119;49.130;9.218;2023-07-09T04:45:57;20.88;73.25
61351;DHT22;47119;49.130;9.218;2023-07-09T04:48:24;20.90;73.55
61351;DHT22;47119;49.130;9.218;2023-07-09T04:50:57;20.90;73.49
61351;DHT22;47119;49.130;9.218;2023-07-09T04:53:25;20.88;73.41
61351;DHT22;47119;49.130;9.218;2023-07-09T04:55:55;20.88;73.93
61351;DHT22;47119;49.130;9.218;2023-07-09T04:58:22;20.88;73.75
61351;DHT22;47119;49.130;9.218;2023-07-09T05:00:51;20.84;73.98
61351;DHT22;47119;49.130;9.218;2023-07-09T05:03:19;20.84;73.89
61351;DHT22;47119;49.130;9.218;2023-07-09T05:05:46;20.87;73.88
61351;DHT22;47119;49.130;9.218;2023-07-09T05:08:15;20.87;74.08
61351;DHT22;47119;49.130;9.218;2023-07-09T05:10:49;20.90;73.33
61351;DHT22;47119;49.130;9.218;2023-07-09T05:13:19;20.85;73.98
61351;DHT22;47119;49.130;9.218;2023-07-09T05:15:49;20.90;73.73
61351;DHT22;47119;49.130;9.218;2023-07-09T05:18:19;20.90;73.84
61351;DHT22;47119;49.130;9.218;2023-07-09T05:20:47;20.91;73.70
61351;DHT22;47119;49.130;9.218;2023-07-09T05:23:18;20.91;73.72
61351;DHT22;47119;49.130;9.218;2023-07-09T05:25:47;20.87;73.82
61351;DHT22;47119;49.130;9.218;2023-07-09T05:28:14;20.90;73.61
61351;DHT22;47119;49.130;9.218;2023-07-09T05:30:43;20.88;73.73
61351;DHT22;47119;49.130;9.218;2023-07-09T05:33:13;20.88;73.32
61351;DHT22;47119;49.130;9.218;2023-07-09T05:35:43;20.87;73.64
61351;DHT22;47119;49.130;9.218;2023-07-09T05:38:13;20.87;74.16
61351;DHT22;47119;49.130;9.218;2023-07-09T05:40:44;20.88;73.85
61351;DHT22;47119;49.130;9.218;2023-07-09T05:43:11;20.90;73.72
61351;DHT22;47119;49.130;9.218;2023-07-09T05:45:38;20.83;73.97
61351;DHT22;47119;49.130;9.218;2023-07-09T05:48:10;20.87;73.88
61351;DHT22;47119;49.130;9.218;2023-07-09T05:50:37;20.85;73.87
61351;DHT22;47119;49.130;9.218;2023-07-09T05:53:07;20.87;73.75
61351;DHT22;47119;49.130;9.218;2023-07-09T05:55:36;20.91;73.75
61351;DHT22;47119;49.130;9.218;2023-07-09T05:58:04;20.95;73.52
61351;DHT22;47119;49.130;9.218;2023-07-09T06:00:36;20.92;73.70
61351;DHT22;47119;49.130;9.218;2023-07-09T06:03:04;20.94;73.46
61351;DHT22;47119;49.130;9.218;2023-07-09T06:05:37;20.92;73.53
61351;DHT22;47119;49.130;9.218;2023-07-09T06:08:09;20.95;73.51
61351;DHT22;47119;49.130;9.218;2023-07-09T06:10:38;20.92;73.80
61351;DHT22;47119;49.130;9.218;2023-07-09T06:13:09;20.98;72.62
61351;DHT22;47119;49.130;9.218;2023-07-09T06:15:38;21.02;73.44
61351;DHT22;47119;49.130;9.218;2023-07-09T06:18:05;20.99;73.57
61351;DHT22;47119;49.130;9.218;2023-07-09T06:20:34;20.98;73.35
61351;DHT22;47119;49.130;9.218;2023-07-09T06:23:05;21.01;73.21
61351;DHT22;47119;49.130;9.218;2023-07-09T06:25:33;21.04;73.10
61351;DHT22;47119;49.130;9.218;2023-07-09T06:28:02;21.05;73.05
61351;DHT22;47119;49.130;9.218;2023-07-09T06:30:33;21.06;72.95
61351;DHT22;47119;49.130;9.218;2023-07-09T06:33:03;21.06;73.00
61351;DHT22;47119;49.130;9.218;2023-07-09T06:35:30;21.02;73.10
61351;DHT22;47119;49.130;9.218;2023-07-09T06:38:02;20.90;74.05
61351;DHT22;47119;49.130;9.218;2023-07-09T06:40:29;20.92;73.56
61351;DHT22;47119;49.130;9.218;2023-07-09T06:42:58;20.95;73.38
61351;DHT22;47119;49.130;9.218;2023-07-09T06:45:36;21.02;72.91
61351;DHT22;47119;49.130;9.218;2023-07-09T06:48:08;21.12;71.60
61351;DHT22;47119;49.130;9.218;2023-07-09T06:50:39;21.14;72.57
61351;DHT22;47119;49.130;9.218;2023-07-09T06:53:08;21.11;72.81
61351;DHT22;47119;49.130;9.218;2023-07-09T06:55:36;21.06;72.95
61351;DHT22;47119;49.130;9.218;2023-07-09T06:58:03;21.06;72.85
61351;DHT22;47119;49.130;9.218;2023-07-09T07:00:30;21.09;72.82
61351;DHT22;47119;49.130;9.218;2023-07-09T07:03:05;21.05;73.04
61351;DHT22;47119;49.130;9.218;2023-07-09T07:05:35;21.06;72.74
61351;DHT22;47119;49.130;9.218;2023-07-09T07:08:03;21.12;72.74
61351;DHT22;47119;49.130;9.218;2023-07-09T07:10:32;21.16;72.63
61351;DHT22;47119;49.130;9.218;2023-07-09T07:12:59;21.15;72.76
61351;DHT22;47119;49.130;9.218;2023-07-09T07:15:26;21.11;72.84
61351;DHT22;47119;49.130;9.218;2023-07-09T07:17:55;21.12;72.80
61351;DHT22;47119;49.130;9.218;2023-07-09T07:20:24;21.16;72.61
61351;DHT22;47119;49.130;9.218;2023-07-09T07:22:51;21.18;72.56
61351;DHT22;47119;49.130;9.218;2023-07-09T07:25:21;21.15;72.82
61351;DHT22;47119;49.130;9.218;2023-07-09T07:27:51;21.15;72.94
61351;DHT22;47119;49.130;9.218;2023-07-09T07:30:21;21.16;72.87
61351;DHT22;47119;49.130;9.218;2023-07-09T07:32:51;21.19;72.69
61351;DHT22;47119;49.130;9.218;2023-07-09T07:35:24;21.21;72.61
61351;DHT22;47119;49.130;9.218;2023-07-09T07:37:57;21.25;72.51
61351;DHT22;47119;49.130;9.218;2023-07-09T07:40:24;21.24;72.63
61351;DHT22;47119;49.130;9.218;2023-07-09T07:42:51;21.22;72.61
61351;DHT22;47119;49.130;9.218;2023-07-09T07:45:20;21.26;72.64
61351;DHT22;47119;49.130;9.218;2023-07-09T07:47:52;21.25;72.52
61351;DHT22;47119;49.130;9.218;2023-07-09T07:50:21;21.22;72.99
61351;DHT22;47119;49.130;9.218;2023-07-09T07:52:54;21.21;72.95
61351;DHT22;47119;49.130;9.218;2023-07-09T07:55:21;21.24;72.83
61351;DHT22;47119;49.130;9.218;2023-07-09T07:57:51;21.22;72.86
61351;DHT22;47119;49.130;9.218;2023-07-09T08:00:18;21.25;72.54
61351;DHT22;47119;49.130;9.218;2023-07-09T08:02:48;21.29;73.01
61351;DHT22;47119;49.130;9.218;2023-07-09T08:05:17;21.32;72.20
61351;DHT22;47119;49.130;9.218;2023-07-09T08:07:49;21.36;71.88
61351;DHT22;47119;49.130;9.218;2023-07-09T08:10:20;21.34;72.29
61351;DHT22;47119;49.130;9.218;2023-07-09T08:12:47;21.31;72.41
61351;DHT22;47119;49.130;9.218;2023-07-09T08:15:14;21.32;72.47
61351;DHT22;47119;49.130;9.218;2023-07-09T08:17:45;21.32;72.85
61351;DHT22;47119;49.130;9.218;2023-07-09T08:20:12;21.29;72.58
61351;DHT22;47119;49.130;9.218;2023-07-09T08:22:42;21.32;72.57
61351;DHT22;47119;49.130;9.218;2023-07-09T08:25:12;21.24;72.71
61351;DHT22;47119;49.130;9.218;2023-07-09T08:27:41;21.22;72.51
61351;DHT22;47119;49.130;9.218;2023-07-09T08:30:09;21.25;72.34
61351;DHT22;47119;49.130;9.218;2023-07-09T08:32:39;21.28;72.23
61351;DHT22;47119;49.130;9.218;2023-07-09T08:35:08;21.29;72.21
61351;DHT22;47119;49.130;9.218;2023-07-09T08:37:39;21.32;72.21
61351;DHT22;47119;49.130;9.218;2023-07-09T08:40:10;21.32;72.34
61351;DHT22;47119;49.130;9.218;2023-07-09T08:42:44;21.31;72.25
61351;DHT22;47119;49.130;9.218;2023-07-09T08:45:23;21.35;72.09
61351;DHT22;47119;49.130;9.218;2023-07-09T08:48:03;21.35;72.22
61351;DHT22;47119;49.130;9.218;2023-07-09T08:50:38;21.36;72.21
61351;DHT22;47119;49.130;9.218;2023-07-09T08:53:17;21.41;71.94
61351;DHT22;47119;49.130;9.218;2023-07-09T08:55:48;21.39;72.10
61351;DHT22;47119;49.130;9.218;2023-07-09T08:58:23;21.41;72.06
61351;DHT22;47119;49.130;9.218;2023-07-09T09:00:54;21.45;71.95
61351;DHT22;47119;49.130;9.218;2023-07-09T09:03:31;21.43;72.04
61351;DHT22;47119;49.130;9.218;2023-07-09T09:06:11;21.42;72.48
61351;DHT22;47119;49.130;9.218;2023-07-09T09:08:50;21.35;72.36
61351;DHT22;47119;49.130;9.218;2023-07-09T09:11:34;21.38;72.33
61351;DHT22;47119;49.130;9.218;2023-07-09T09:14:21;21.41;71.95
61351;DHT22;47119;49.130;9.218;2023-07-09T09:16:57;21.43;72.07
61351;DHT22;47119;49.130;9.218;2023-07-09T09:19:29;21.49;71.55
61351;DHT22;47119;49.130;9.218;2023-07-09T09:22:07;21.42;71.94
61351;DHT22;47119;49.130;9.218;2023-07-09T09:24:46;21.47;71.91
61351;DHT22;47119;49.130;9.218;2023-07-09T09:27:22;21.47;71.97
61351;DHT22;47119;49.130;9.218;2023-07-09T09:29:50;21.49;71.53
61351;DHT22;47119;49.130;9.218;2023-07-09T09:32:23;21.47;72.08
61351;DHT22;47119;49.130;9.218;2023-07-09T09:34:53;21.47;71.85
61351;DHT22;47119;49.130;9.218;2023-07-09T09:37:27;21.45;71.92
61351;DHT22;47119;49.130;9.218;2023-07-09T09:39:56;21.31;72.28
61351;DHT22;47119;49.130;9.218;2023-07-09T09:42:25;21.35;72.03
61351;DHT22;47119;49.130;9.218;2023-07-09T09:44:54;21.38;71.81
61351;DHT22;47119;49.130;9.218;2023-07-09T09:47:26;21.39;71.84
61351;DHT22;47119;49.130;9.218;2023-07-09T09:49:56;21.53;71.38
61351;DHT22;47119;49.130;9.218;2023-07-09T09:52:29;21.55;71.44
61351;DHT22;47119;49.130;9.218;2023-07-09T09:55:08;21.55;71.65
61351;DHT22;47119;49.130;9.218;2023-07-09T09:57:38;21.57;72.31
61351;DHT22;47119;49.130;9.218;2023-07-09T10:00:38;21.67;72.72
61351;DHT22;47119;49.130;9.218;2023-07-09T10:03:06;21.67;72.81
61351;DHT22;47119;49.130;9.218;2023-07-09T10:05:45;21.56;72.69
61351;DHT22;47119;49.130;9.218;2023-07-09T10:08:32;21.52;72.89
61351;DHT22;47119;49.130;9.218;2023-07-09T10:11:18;21.43;73.77
61351;DHT22;47119;49.130;9.218;2023-07-09T10:13:54;21.47;74.42
61351;DHT22;47119;49.130;9.218;2023-07-09T10:16:29;21.43;75.05
61351;DHT22;47119;49.130;9.218;2023-07-09T10:19:12;21.46;73.92
61351;DHT22;47119;49.130;9.218;2023-07-09T10:21:57;21.49;75.29
61351;DHT22;47119;49.130;9.218;2023-07-09T10:24:41;21.41;74.91
61351;DHT22;47119;49.130;9.218;2023-07-09T10:27:21;21.41;74.23
61351;DHT22;47119;49.130;9.218;2023-07-09T10:30:08;21.32;75.45
61351;DHT22;47119;49.130;9.218;2023-07-09T10:32:56;21.49;74.48
61351;DHT22;47119;49.130;9.218;2023-07-09T10:35:38;21.41;74.87
61351;DHT22;47119;49.130;9.218;2023-07-09T10:38:31;21.35;74.35
61351;DHT22;47119;49.130;9.218;2023-07-09T10:41:11;21.32;74.80
61351;DHT22;47119;49.130;9.218;2023-07-09T10:43:44;21.36;73.98
61351;DHT22;47119;49.130;9.218;2023-07-09T10:46:17;21.34;74.16
61351;DHT22;47119;49.130;9.218;2023-07-09T10:48:53;21.36;74.88
61351;DHT22;47119;49.130;9.218;2023-07-09T10:51:24;21.34;74.78
61351;DHT22;47119;49.130;9.218;2023-07-09T10:53:57;21.26;74.03
61351;DHT22;47119;49.130;9.218;2023-07-09T10:56:32;21.24;75.24
61351;DHT22;47119;49.130;9.218;2023-07-09T10:59:24;21.35;74.98
61351;DHT22;47119;49.130;9.218;2023-07-09T11:01:58;21.35;75.00
61351;DHT22;47119;49.130;9.218;2023-07-09T11:04:40;21.31;75.37
61351;DHT22;47119;49.130;9.218;2023-07-09T11:07:15;21.28;74.50
61351;DHT22;47119;49.130;9.218;2023-07-09T11:09:48;21.29;75.23
61351;DHT22;47119;49.130;9.218;2023-07-09T11:12:29;21.31;74.80
61351;DHT22;47119;49.130;9.218;2023-07-09T11:15:02;21.28;74.54
61351;DHT22;47119;49.130;9.218;2023-07-09T11:17:40;21.42;72.73
61351;DHT22;47119;49.130;9.218;2023-07-09T11:20:24;21.31;74.19
61351;DHT22;47119;49.130;9.218;2023-07-09T11:23:01;21.28;74.02
61351;DHT22;47119;49.130;9.218;2023-07-09T11:25:39;21.32;73.59
61351;DHT22;47119;49.130;9.218;2023-07-09T11:28:08;21.28;73.54
61351;DHT22;47119;49.130;9.218;2023-07-09T11:30:46;21.26;73.53
61351;DHT22;47119;49.130;9.218;2023-07-09T14:19:46;21.38;71.39
61351;DHT22;47119;49.130;9.218;2023-07-09T14:22:41;21.38;71.74
61351;DHT22;47119;49.130;9.218;2023-07-09T14:25:17;21.41;71.60
61351;DHT22;47119;49.130;9.218;2023-07-09T14:27:48;21.35;71.21
61351;DHT22;47119;49.130;9.218;2023-07-09T14:30:17;21.41;71.31
61351;DHT22;47119;49.130;9.218;2023-07-09T14:32:46;21.41;71.41
61351;DHT22;47119;49.130;9.218;2023-07-09T14:35:20;21.36;71.39
61351;DHT22;47119;49.130;9.218;2023-07-09T14:37:50;21.29;71.19
61351;DHT22;47119;49.130;9.218;2023-07-09T14:40:20;21.35;71.48
61351;DHT22;47119;49.130;9.218;2023-07-09T14:42:50;21.36;71.52
61351;DHT22;47119;49.130;9.218;2023-07-09T14:45:19;21.36;71.67
61351;DHT22;47119;49.130;9.218;2023-07-09T14:47:49;21.35;71.92
61351;DHT22;47119;49.130;9.218;2023-07-09T14:50:19;21.42;71.69
61351;DHT22;47119;49.130;9.218;2023-07-09T14:52:48;21.38;71.82
61351;DHT22;47119;49.130;9.218;2023-07-09T14:55:20;21.35;71.19
61351;DHT22;47119;49.130;9.218;2023-07-09T14:57:49;21.34;71.58
61351;DHT22;47119;49.130;9.218;2023-07-09T15:00:17;21.36;71.40
61351;DHT22;47119;49.130;9.218;2023-07-09T15:02:48;21.36;71.42
61351;DHT22;47119;49.130;9.218;2023-07-09T15:05:21;21.36;71.55
61351;DHT22;47119;49.130;9.218;2023-07-09T15:07:52;21.39;71.45
61351;DHT22;47119;49.130;9.218;2023-07-09T15:10:22;21.36;71.49
61351;DHT22;47119;49.130;9.218;2023-07-09T15:12:55;21.34;71.32
61351;DHT22;47119;49.130;9.218;2023-07-09T15:15:26;21.35;71.09
61351;DHT22;47119;49.130;9.218;2023-07-09T15:18:01;21.32;71.23
61351;DHT22;47119;49.130;9.218;2023-07-09T15:20:39;21.29;71.00
61351;DHT22;47119;49.130;9.218;2023-07-09T15:23:10;21.28;70.90
61351;DHT22;47119;49.130;9.218;2023-07-09T15:25:40;21.29;71.15
61351;DHT22;47119;49.130;9.218;2023-07-09T15:28:10;21.35;71.10
61351;DHT22;47119;49.130;9.218;2023-07-09T15:30:40;21.35;70.91
61351;DHT22;47119;49.130;9.218;2023-07-09T15:33:13;21.36;71.05
61351;DHT22;47119;49.130;9.218;2023-07-09T15:35:47;21.35;70.97
61351;DHT22;47119;49.130;9.218;2023-07-09T15:38:25;21.34;70.85
61351;DHT22;47119;49.130;9.218;2023-07-09T15:40:59;21.41;70.74
61351;DHT22;47119;49.130;9.218;2023-07-09T15:43:28;21.38;70.82
61351;DHT22;47119;49.130;9.218;2023-07-09T15:45:58;21.36;70.79
61351;DHT22;47119;49.130;9.218;2023-07-09T15:48:30;21.34;70.77
61351;DHT22;47119;49.130;9.218;2023-07-09T15:51:04;21.36;70.67
61351;DHT22;47119;49.130;9.218;2023-07-09T15:53:34;21.35;70.74
61351;DHT22;47119;49.130;9.218;2023-07-09T15:56:05;21.38;70.67
61351;DHT22;47119;49.130;9.218;2023-07-09T15:58:44;21.41;70.65
61351;DHT22;47119;49.130;9.218;2023-07-09T16:01:15;21.39;70.65
61351;DHT22;47119;49.130;9.218;2023-07-09T16:03:47;21.38;70.52
61351;DHT22;47119;49.130;9.218;2023-07-09T16:06:18;21.34;70.52
61351;DHT22;47119;49.130;9.218;2023-07-09T16:08:47;21.35;70.52
61351;DHT22;47119;49.130;9.218;2023-07-09T16:11:21;21.38;70.33
61351;DHT22;47119;49.130;9.218;2023-07-09T16:13:50;21.41;70.30
61351;DHT22;47119;49.130;9.218;2023-07-09T16:16:22;21.41;70.33
61351;DHT22;47119;49.130;9.218;2023-07-09T16:18:51;21.46;70.31
61351;DHT22;47119;49.130;9.218;2023-07-09T16:21:24;21.46;70.30
61351;DHT22;47119;49.130;9.218;2023-07-09T16:23:58;21.41;70.38
61351;DHT22;47119;49.130;9.218;2023-07-09T16:26:32;21.39;70.23
61351;DHT22;47119;49.130;9.218;2023-07-09T16:29:01;21.43;70.15
61351;DHT22;47119;49.130;9.218;2023-07-09T16:31:41;21.42;70.21
61351;DHT22;47119;49.130;9.218;2023-07-09T16:34:29;21.42;70.09
61351;DHT22;47119;49.130;9.218;2023-07-09T16:36:58;21.41;70.05
61351;DHT22;47119;49.130;9.218;2023-07-09T16:39:34;21.42;70.02
61351;DHT22;47119;49.130;9.218;2023-07-09T16:42:09;21.41;69.86
61351;DHT22;47119;49.130;9.218;2023-07-09T16:44:43;21.36;69.88
61351;DHT22;47119;49.130;9.218;2023-07-09T16:47:15;21.38;69.93
61351;DHT22;47119;49.130;9.218;2023-07-09T16:49:46;21.39;69.92
61351;DHT22;47119;49.130;9.218;2023-07-09T16:52:19;21.41;69.98
61351;DHT22;47119;49.130;9.218;2023-07-09T16:54:47;21.38;69.95
61351;DHT22;47119;49.130;9.218;2023-07-09T16:57:15;21.38;69.92
61351;DHT22;47119;49.130;9.218;2023-07-09T16:59:45;21.42;69.94
61351;DHT22;47119;49.130;9.218;2023-07-09T17:02:26;21.42;69.93
61351;DHT22;47119;49.130;9.218;2023-07-09T17:04:57;21.42;69.89
61351;DHT22;47119;49.130;9.218;2023-07-09T17:07:27;21.39;69.84
61351;DHT22;47119;49.130;9.218;2023-07-09T17:09:56;21.41;69.88
61351;DHT22;47119;49.130;9.218;2023-07-09T17:12:24;21.41;69.88
61351;DHT22;47119;49.130;9.218;2023-07-09T17:14:51;21.41;69.89
61351;DHT22;47119;49.130;9.218;2023-07-09T17:17:20;21.39;69.88
61351;DHT22;47119;49.130;9.218;2023-07-09T17:19:48;21.35;69.59
61351;DHT22;47119;49.130;9.218;2023-07-09T17:22:19;21.41;69.82
61351;DHT22;47119;49.130;9.218;2023-07-09T17:24:54;21.41;69.74
61351;DHT22;47119;49.130;9.218;2023-07-09T17:27:23;21.38;69.61
61351;DHT22;47119;49.130;9.218;2023-07-09T17:29:50;21.36;69.65
61351;DHT22;47119;49.130;9.218;2023-07-09T17:32:17;21.38;69.70
61351;DHT22;47119;49.130;9.218;2023-07-09T17:34:44;21.38;69.70
61351;DHT22;47119;49.130;9.218;2023-07-09T17:37:14;21.38;69.65
61351;DHT22;47119;49.130;9.218;2023-07-09T17:39:45;21.38;69.61
61351;DHT22;47119;49.130;9.218;2023-07-09T17:42:15;21.36;69.54
61351;DHT22;47119;49.130;9.218;2023-07-09T17:44:42;21.39;69.60
61351;DHT22;47119;49.130;9.218;2023-07-09T17:47:14;21.39;69.60
61351;DHT22;47119;49.130;9.218;2023-07-09T17:49:43;21.39;69.58
61351;DHT22;47119;49.130;9.218;2023-07-09T17:52:14;21.39;69.50
61351;DHT22;47119;49.130;9.218;2023-07-09T17:54:42;21.39;69.54
61351;DHT22;47119;49.130;9.218;2023-07-09T17:57:23;21.38;69.45
61351;DHT22;47119;49.130;9.218;2023-07-09T17:59:52;21.39;69.44
61351;DHT22;47119;49.130;9.218;2023-07-09T18:02:25;21.39;69.43
61351;DHT22;47119;49.130;9.218;2023-07-09T18:04:55;21.39;69.47
61351;DHT22;47119;49.130;9.218;2023-07-09T18:07:29;21.42;69.41
61351;DHT22;47119;49.130;9.218;2023-07-09T18:10:01;21.41;69.44
61351;DHT22;47119;49.130;9.218;2023-07-09T18:12:30;21.39;69.44
61351;DHT22;47119;49.130;9.218;2023-07-09T18:14:58;21.39;69.39
61351;DHT22;47119;49.130;9.218;2023-07-09T18:17:29;21.39;69.39
61351;DHT22;47119;49.130;9.218;2023-07-09T18:20:02;21.39;69.42
61351;DHT22;47119;49.130;9.218;2023-07-09T18:22:37;21.39;69.42
61351;DHT22;47119;49.130;9.218;2023-07-09T18:25:04;21.41;69.39
61351;DHT22;47119;49.130;9.218;2023-07-09T18:27:38;21.41;69.39
61351;DHT22;47119;49.130;9.218;2023-07-09T18:30:15;21.42;69.40
61351;DHT22;47119;49.130;9.218;2023-07-09T18:32:47;21.41;69.40
61351;DHT22;47119;49.130;9.218;2023-07-09T18:35:24;21.38;69.43
61351;DHT22;47119;49.130;9.218;2023-07-09T18:38:04;21.38;69.47
61351;DHT22;47119;49.130;9.218;2023-07-09T18:40:40;21.39;69.44
61351;DHT22;47119;49.130;9.218;2023-07-09T18:43:12;21.41;69.45